CDT,Max TemperatureF,Mean TemperatureF,Min TemperatureF,Max Dew PointF,MeanDew PointF,Min DewpointF,Max Humidity, Mean Humidity, Min Humidity, Max Sea Level PressureIn, Mean Sea Level PressureIn, Min Sea Level PressureIn, Max VisibilityMiles, Mean VisibilityMiles, Min VisibilityMiles, Max Wind SpeedMPH, Mean Wind SpeedMPH, Max Gust SpeedMPH,PrecipitationIn, CloudCover, Events, WindDirDegrees
2012-10-1,84,74,64,72,69,62,93,76,58,29.69,29.59,29.52,10,8,1,21,9,28,0.25,7,Rain,167
2012-10-2,65,60,55,63,60,54,93,86,78,30.01,29.81,29.67,10,8,2,9,3,13,0.01,7,Rain,220
2012-10-3,77,65,53,59,55,52,100,77,53,30.19,30.10,30.02,10,4,0,9,1,15,0.00,4,Fog,106
2012-10-4,82,70,57,64,59,56,93,69,45,30.28,30.22,30.19,10,8,3,7,1,10,0.00,0,,210
2012-10-5,84,71,57,64,59,56,93,68,43,30.19,30.11,30.01,10,7,4,10,1,14,0.00,0,,176
2012-10-6,78,68,58,64,59,54,93,79,64,30.06,30.02,29.98,10,8,4,13,5,17,0.00,3,,332
2012-10-7,62,57,51,54,48,44,86,71,55,30.16,30.09,30.02,10,10,10,14,6,20,0.00,5,,340
2012-10-8,64,58,51,49,46,43,83,70,56,30.18,30.13,30.08,10,10,10,12,4,16,0.00,5,,345
2012-10-9,72,60,47,54,49,45,93,72,51,30.17,30.10,30.04,10,9,7,8,1,13,0.00,0,,155
2012-10-10,78,64,50,60,55,48,96,75,53,30.19,30.14,30.09,10,9,7,13,3,16,0.00,3,,307
2012-10-11,79,66,52,60,56,51,93,72,50,30.29,30.23,30.18,10,8,5,8,1,10,0.00,0,,215
2012-10-12,82,70,58,65,60,56,93,72,51,30.30,30.24,30.21,10,8,4,9,1,14,0.00,1,,5
2012-10-13,84,74,63,63,62,61,93,70,47,30.29,30.22,30.15,10,10,8,12,5,17,0.00,1,,113
2012-10-14,80,72,63,66,63,59,93,78,62,30.21,30.10,29.95,10,10,9,16,6,21,0.00,4,,162
2012-10-15,77,66,54,66,61,46,93,63,33,30.01,29.97,29.93,10,7,1,17,4,28,0.98,5,Rain-Thunderstorm,308
2012-10-16,72,61,50,57,51,46,96,69,41,30.02,29.95,29.89,10,10,10,7,0,10,0.00,0,,70
2012-10-17,78,65,52,57,52,45,93,62,31,29.92,29.85,29.75,10,10,8,15,5,20,0.00,0,,166
2012-10-18,76,64,52,64,58,40,100,65,29,29.88,29.79,29.72,10,8,0,16,3,22,1.04,5,Fog-Rain-Thunderstorm,192
2012-10-19,73,60,47,44,40,32,80,52,24,29.87,29.84,29.78,10,10,10,17,3,28,0.00,0,,242
2012-10-20,71,59,46,52,46,43,93,67,40,30.01,29.95,29.88,10,10,7,10,2,15,0.00,0,,310
2012-10-21,78,63,48,55,50,46,93,66,38,30.16,30.11,30.02,10,10,10,6,1,8,0.00,0,,145
2012-10-22,81,66,50,56,51,47,93,62,30,30.21,30.15,30.09,10,10,9,7,1,10,0.00,0,,75
2012-10-23,80,66,52,55,51,46,96,64,32,30.19,30.11,30.07,10,10,10,9,1,12,0.00,0,,140
2012-10-24,81,67,52,60,55,49,96,71,45,30.17,30.10,30.04,10,10,8,7,1,10,0.00,0,,115
2012-10-25,81,68,55,61,58,54,93,69,45,30.09,30.03,29.98,10,10,8,10,1,15,0.00,0,,130
2012-10-26,83,70,57,65,60,53,90,68,45,30.04,29.97,29.91,10,10,9,15,3,21,0.00,2,,330
2012-10-27,57,54,50,51,46,44,89,80,71,29.99,29.95,29.92,10,10,8,17,9,25,T,8,,338
2012-10-28,61,53,45,45,40,33,77,59,40,30.03,29.95,29.90,10,10,10,20,9,29,0.00,5,,336
2012-10-29,57,47,37,34,30,24,82,56,30,30.08,30.01,29.95,10,10,10,20,9,30,0.00,0,,319
2012-10-30,59,49,39,36,28,23,76,51,26,29.94,29.91,29.86,10,10,10,22,7,30,0.00,0,,304
2012-10-31,68,53,37,45,38,33,86,59,32,29.99,29.95,29.90,10,10,10,14,3,22,0.00,0,,284